sensor_id;sensor_type;location;lat;lon;timestamp;temperature;humidity
22795;DHT22;11564;50.920;11.612;2023-03-23T00:01:07;12.90;94.90
22795;DHT22;11564;50.920;11.612;2023-03-23T00:03:39;12.90;93.90
22795;DHT22;11564;50.920;11.612;2023-03-23T00:06:05;12.80;94.30
22795;DHT22;11564;50.920;11.612;2023-03-23T00:08:36;12.90;93.00
22795;DHT22;11564;50.920;11.612;2023-03-23T00:11:23;13.00;93.10
22795;DHT22;11564;50.920;11.612;2023-03-23T00:13:50;13.10;92.90
22795;DHT22;11564;50.920;11.612;2023-03-23T00:16:20;13.20;92.60
22795;DHT22;11564;50.920;11.612;2023-03-23T00:18:54;13.30;92.90
22795;DHT22;11564;50.920;11.612;2023-03-23T00:21:21;13.30;92.80
22795;DHT22;11564;50.920;11.612;2023-03-23T00:23:59;13.40;92.80
22795;DHT22;11564;50.920;11.612;2023-03-23T00:26:25;13.50;92.70
22795;DHT22;11564;50.920;11.612;2023-03-23T00:28:54;13.60;92.50
22795;DHT22;11564;50.920;11.612;2023-03-23T00:31:19;13.60;92.50
22795;DHT22;11564;50.920;11.612;2023-03-23T00:33:46;13.50;92.80
22795;DHT22;11564;50.920;11.612;2023-03-23T00:36:12;13.60;92.50
22795;DHT22;11564;50.920;11.612;2023-03-23T00:38:39;13.60;92.50
22795;DHT22;11564;50.920;11.612;2023-03-23T00:41:06;13.50;93.00
22795;DHT22;11564;50.920;11.612;2023-03-23T00:43:32;13.40;93.10
22795;DHT22;11564;50.920;11.612;2023-03-23T00:46:01;13.40;92.90
22795;DHT22;11564;50.920;11.612;2023-03-23T00:48:29;13.50;92.40
22795;DHT22;11564;50.920;11.612;2023-03-23T00:50:55;13.50;93.20
22795;DHT22;11564;50.920;11.612;2023-03-23T00:53:22;13.50;92.50
22795;DHT22;11564;50.920;11.612;2023-03-23T00:55:48;13.50;92.30
22795;DHT22;11564;50.920;11.612;2023-03-23T00:58:15;13.60;92.50
22795;DHT22;11564;50.920;11.612;2023-03-23T01:00:42;13.70;92.10
22795;DHT22;11564;50.920;11.612;2023-03-23T01:03:09;13.80;91.70
22795;DHT22;11564;50.920;11.612;2023-03-23T01:05:38;13.70;91.90
22795;DHT22;11564;50.920;11.612;2023-03-23T01:08:05;13.70;92.10
22795;DHT22;11564;50.920;11.612;2023-03-23T01:10:32;13.70;92.00
22795;DHT22;11564;50.920;11.612;2023-03-23T01:12:59;13.70;92.00
22795;DHT22;11564;50.920;11.612;2023-03-23T01:15:26;13.70;91.80
22795;DHT22;11564;50.920;11.612;2023-03-23T01:17:52;13.70;91.70
22795;DHT22;11564;50.920;11.612;2023-03-23T01:20:18;13.80;91.90
22795;DHT22;11564;50.920;11.612;2023-03-23T01:22:44;13.70;92.00
22795;DHT22;11564;50.920;11.612;2023-03-23T01:25:12;13.60;92.40
22795;DHT22;11564;50.920;11.612;2023-03-23T01:27:38;13.60;91.90
22795;DHT22;11564;50.920;11.612;2023-03-23T01:30:04;13.50;92.30
22795;DHT22;11564;50.920;11.612;2023-03-23T01:32:31;13.40;92.80
22795;DHT22;11564;50.920;11.612;2023-03-23T01:34:56;13.40;93.10
22795;DHT22;11564;50.920;11.612;2023-03-23T01:37:22;13.40;92.40
22795;DHT22;11564;50.920;11.612;2023-03-23T01:39:55;13.60;92.00
22795;DHT22;11564;50.920;11.612;2023-03-23T01:42:33;13.60;92.20
22795;DHT22;11564;50.920;11.612;2023-03-23T01:47:46;13.70;92.20
22795;DHT22;11564;50.920;11.612;2023-03-23T01:50:14;13.70;92.20
22795;DHT22;11564;50.920;11.612;2023-03-23T01:52:40;13.70;92.50
22795;DHT22;11564;50.920;11.612;2023-03-23T01:55:06;13.70;92.50
22795;DHT22;11564;50.920;11.612;2023-03-23T01:57:33;13.80;92.40
22795;DHT22;11564;50.920;11.612;2023-03-23T02:00:03;13.70;92.70
22795;DHT22;11564;50.920;11.612;2023-03-23T02:02:46;13.60;93.00
22795;DHT22;11564;50.920;11.612;2023-03-23T02:05:30;13.60;93.00
22795;DHT22;11564;50.920;11.612;2023-03-23T02:07:59;13.70;92.90
22795;DHT22;11564;50.920;11.612;2023-03-23T02:10:30;13.70;92.90
22795;DHT22;11564;50.920;11.612;2023-03-23T02:12:57;13.60;93.30
22795;DHT22;11564;50.920;11.612;2023-03-23T02:15:26;13.60;93.30
22795;DHT22;11564;50.920;11.612;2023-03-23T02:26:51;13.50;93.80
22795;DHT22;11564;50.920;11.612;2023-03-23T02:35:03;13.60;93.80
22795;DHT22;11564;50.920;11.612;2023-03-23T02:40:17;13.50;94.00
22795;DHT22;11564;50.920;11.612;2023-03-23T02:42:49;13.60;93.80
22795;DHT22;11564;50.920;11.612;2023-03-23T02:45:16;13.60;93.90
22795;DHT22;11564;50.920;11.612;2023-03-23T02:47:43;13.60;94.00
22795;DHT22;11564;50.920;11.612;2023-03-23T02:50:13;13.50;94.30
22795;DHT22;11564;50.920;11.612;2023-03-23T02:52:42;13.50;94.40
22795;DHT22;11564;50.920;11.612;2023-03-23T02:55:09;13.50;94.20
22795;DHT22;11564;50.920;11.612;2023-03-23T02:57:37;13.50;94.30
22795;DHT22;11564;50.920;11.612;2023-03-23T03:00:05;13.60;94.10
22795;DHT22;11564;50.920;11.612;2023-03-23T03:02:37;13.60;94.10
22795;DHT22;11564;50.920;11.612;2023-03-23T03:05:28;13.70;94.20
22795;DHT22;11564;50.920;11.612;2023-03-23T03:08:15;13.60;94.20
22795;DHT22;11564;50.920;11.612;2023-03-23T03:11:13;13.60;94.40
22795;DHT22;11564;50.920;11.612;2023-03-23T03:14:04;13.60;94.40
22795;DHT22;11564;50.920;11.612;2023-03-23T03:16:38;13.60;94.60
22795;DHT22;11564;50.920;11.612;2023-03-23T03:19:14;13.60;94.40
22795;DHT22;11564;50.920;11.612;2023-03-23T03:21:46;13.60;94.60
22795;DHT22;11564;50.920;11.612;2023-03-23T03:24:15;13.70;94.30
22795;DHT22;11564;50.920;11.612;2023-03-23T03:26:45;13.70;94.40
22795;DHT22;11564;50.920;11.612;2023-03-23T03:29:15;13.70;94.20
22795;DHT22;11564;50.920;11.612;2023-03-23T03:31:43;13.70;94.40
22795;DHT22;11564;50.920;11.612;2023-03-23T03:34:13;13.70;94.30
22795;DHT22;11564;50.920;11.612;2023-03-23T03:36:44;13.70;94.40
22795;DHT22;11564;50.920;11.612;2023-03-23T03:39:12;13.60;94.50
22795;DHT22;11564;50.920;11.612;2023-03-23T03:41:40;13.60;94.60
22795;DHT22;11564;50.920;11.612;2023-03-23T03:44:06;13.60;94.30
22795;DHT22;11564;50.920;11.612;2023-03-23T03:46:33;13.60;94.30
22795;DHT22;11564;50.920;11.612;2023-03-23T03:49:03;13.70;94.30
22795;DHT22;11564;50.920;11.612;2023-03-23T03:51:30;13.70;94.20
22795;DHT22;11564;50.920;11.612;2023-03-23T03:53:56;13.80;94.00
22795;DHT22;11564;50.920;11.612;2023-03-23T03:56:22;13.80;94.00
22795;DHT22;11564;50.920;11.612;2023-03-23T03:58:49;13.80;94.10
22795;DHT22;11564;50.920;11.612;2023-03-23T04:01:16;13.90;93.80
22795;DHT22;11564;50.920;11.612;2023-03-23T04:03:43;13.90;93.80
22795;DHT22;11564;50.920;11.612;2023-03-23T04:06:10;13.90;93.80
22795;DHT22;11564;50.920;11.612;2023-03-23T04:08:36;13.90;93.90
22795;DHT22;11564;50.920;11.612;2023-03-23T04:11:09;13.80;93.90
22795;DHT22;11564;50.920;11.612;2023-03-23T04:13:36;13.90;93.90
22795;DHT22;11564;50.920;11.612;2023-03-23T04:16:02;13.90;93.80
22795;DHT22;11564;50.920;11.612;2023-03-23T04:18:29;13.80;93.90
22795;DHT22;11564;50.920;11.612;2023-03-23T04:20:54;13.90;93.90
22795;DHT22;11564;50.920;11.612;2023-03-23T04:23:25;13.90;93.80
22795;DHT22;11564;50.920;11.612;2023-03-23T04:25:52;13.90;94.00
22795;DHT22;11564;50.920;11.612;2023-03-23T04:28:22;13.90;93.90
22795;DHT22;11564;50.920;11.612;2023-03-23T04:30:52;13.90;94.00
22795;DHT22;11564;50.920;11.612;2023-03-23T04:33:22;13.90;94.00
22795;DHT22;11564;50.920;11.612;2023-03-23T04:35:51;13.90;94.10
22795;DHT22;11564;50.920;11.612;2023-03-23T04:38:18;13.80;94.30
22795;DHT22;11564;50.920;11.612;2023-03-23T04:40:46;13.90;94.30
22795;DHT22;11564;50.920;11.612;2023-03-23T04:43:12;13.80;94.50
22795;DHT22;11564;50.920;11.612;2023-03-23T04:45:40;13.80;94.30
22795;DHT22;11564;50.920;11.612;2023-03-23T04:48:07;13.80;94.40
22795;DHT22;11564;50.920;11.612;2023-03-23T04:50:34;13.80;94.70
22795;DHT22;11564;50.920;11.612;2023-03-23T04:53:00;13.80;94.40
22795;DHT22;11564;50.920;11.612;2023-03-23T04:55:31;13.80;94.60
22795;DHT22;11564;50.920;11.612;2023-03-23T04:57:57;13.80;94.60
22795;DHT22;11564;50.920;11.612;2023-03-23T05:00:25;13.70;94.70
22795;DHT22;11564;50.920;11.612;2023-03-23T05:02:51;13.60;94.90
22795;DHT22;11564;50.920;11.612;2023-03-23T05:05:18;13.70;94.90
22795;DHT22;11564;50.920;11.612;2023-03-23T05:07:44;13.60;94.80
22795;DHT22;11564;50.920;11.612;2023-03-23T05:10:11;13.70;94.80
22795;DHT22;11564;50.920;11.612;2023-03-23T05:12:37;13.70;94.90
22795;DHT22;11564;50.920;11.612;2023-03-23T05:15:04;13.70;94.90
22795;DHT22;11564;50.920;11.612;2023-03-23T05:17:30;13.60;94.80
22795;DHT22;11564;50.920;11.612;2023-03-23T05:19:58;13.60;95.10
22795;DHT22;11564;50.920;11.612;2023-03-23T05:22:26;13.60;94.90
22795;DHT22;11564;50.920;11.612;2023-03-23T05:24:52;13.60;94.90
22795;DHT22;11564;50.920;11.612;2023-03-23T05:27:18;13.60;95.20
22795;DHT22;11564;50.920;11.612;2023-03-23T05:29:45;13.60;95.10
22795;DHT22;11564;50.920;11.612;2023-03-23T05:32:15;13.60;95.00
22795;DHT22;11564;50.920;11.612;2023-03-23T05:34:42;13.60;95.20
22795;DHT22;11564;50.920;11.612;2023-03-23T05:37:08;13.60;95.20
22795;DHT22;11564;50.920;11.612;2023-03-23T05:39:35;13.50;95.50
22795;DHT22;11564;50.920;11.612;2023-03-23T05:42:02;13.50;95.30
22795;DHT22;11564;50.920;11.612;2023-03-23T05:44:27;13.60;95.30
22795;DHT22;11564;50.920;11.612;2023-03-23T05:46:53;13.50;95.70
22795;DHT22;11564;50.920;11.612;2023-03-23T05:49:18;13.50;96.50
22795;DHT22;11564;50.920;11.612;2023-03-23T05:51:44;13.40;97.10
22795;DHT22;11564;50.920;11.612;2023-03-23T05:54:11;13.40;96.50
22795;DHT22;11564;50.920;11.612;2023-03-23T05:56:38;13.40;96.80
22795;DHT22;11564;50.920;11.612;2023-03-23T05:59:03;13.40;96.60
22795;DHT22;11564;50.920;11.612;2023-03-23T06:01:29;13.40;96.60
22795;DHT22;11564;50.920;11.612;2023-03-23T06:03:57;13.40;96.40
22795;DHT22;11564;50.920;11.612;2023-03-23T06:06:27;13.30;96.70
22795;DHT22;11564;50.920;11.612;2023-03-23T06:08:55;13.40;96.70
22795;DHT22;11564;50.920;11.612;2023-03-23T06:11:21;13.40;96.70
22795;DHT22;11564;50.920;11.612;2023-03-23T06:13:46;13.30;96.90
22795;DHT22;11564;50.920;11.612;2023-03-23T06:16:13;13.30;96.80
22795;DHT22;11564;50.920;11.612;2023-03-23T06:18:38;13.30;97.00
22795;DHT22;11564;50.920;11.612;2023-03-23T06:21:06;13.40;96.80
22795;DHT22;11564;50.920;11.612;2023-03-23T06:23:33;13.40;97.10
22795;DHT22;11564;50.920;11.612;2023-03-23T06:26:02;13.40;97.20
22795;DHT22;11564;50.920;11.612;2023-03-23T06:28:29;13.40;97.60
22795;DHT22;11564;50.920;11.612;2023-03-23T06:30:59;13.40;97.50
22795;DHT22;11564;50.920;11.612;2023-03-23T06:33:25;13.40;97.70
22795;DHT22;11564;50.920;11.612;2023-03-23T06:35:51;13.40;97.80
22795;DHT22;11564;50.920;11.612;2023-03-23T06:38:17;13.30;97.90
22795;DHT22;11564;50.920;11.612;2023-03-23T06:40:42;13.40;98.20
22795;DHT22;11564;50.920;11.612;2023-03-23T06:43:12;13.20;99.10
22795;DHT22;11564;50.920;11.612;2023-03-23T06:45:38;13.10;99.90
22795;DHT22;11564;50.920;11.612;2023-03-23T06:48:03;12.90;99.90
22795;DHT22;11564;50.920;11.612;2023-03-23T06:50:29;12.80;99.90
22795;DHT22;11564;50.920;11.612;2023-03-23T06:52:55;12.70;99.90
22795;DHT22;11564;50.920;11.612;2023-03-23T06:55:20;12.70;99.90
22795;DHT22;11564;50.920;11.612;2023-03-23T06:57:47;12.70;99.90
22795;DHT22;11564;50.920;11.612;2023-03-23T07:00:13;12.70;99.90
22795;DHT22;11564;50.920;11.612;2023-03-23T07:02:42;12.70;99.90
22795;DHT22;11564;50.920;11.612;2023-03-23T07:05:09;12.80;99.90
22795;DHT22;11564;50.920;11.612;2023-03-23T07:07:36;12.70;99.90
22795;DHT22;11564;50.920;11.612;2023-03-23T07:10:04;12.70;99.90
22795;DHT22;11564;50.920;11.612;2023-03-23T07:12:30;12.80;99.90
22795;DHT22;11564;50.920;11.612;2023-03-23T07:14:55;12.90;99.90
22795;DHT22;11564;50.920;11.612;2023-03-23T07:17:21;12.90;99.90
22795;DHT22;11564;50.920;11.612;2023-03-23T07:19:47;12.80;99.90
22795;DHT22;11564;50.920;11.612;2023-03-23T07:22:12;12.80;99.90
22795;DHT22;11564;50.920;11.612;2023-03-23T07:24:38;12.80;99.90
22795;DHT22;11564;50.920;11.612;2023-03-23T07:27:04;12.80;99.90
22795;DHT22;11564;50.920;11.612;2023-03-23T07:29:29;12.80;99.90
22795;DHT22;11564;50.920;11.612;2023-03-23T07:31:56;12.80;99.90
22795;DHT22;11564;50.920;11.612;2023-03-23T07:34:22;12.80;99.90
22795;DHT22;11564;50.920;11.612;2023-03-23T07:36:48;12.80;99.90
22795;DHT22;11564;50.920;11.612;2023-03-23T07:39:14;12.90;99.90
22795;DHT22;11564;50.920;11.612;2023-03-23T07:41:40;12.90;99.90
22795;DHT22;11564;50.920;11.612;2023-03-23T07:44:05;12.90;99.90
22795;DHT22;11564;50.920;11.612;2023-03-23T07:46:32;13.00;99.90
22795;DHT22;11564;50.920;11.612;2023-03-23T07:48:58;13.00;99.90
22795;DHT22;11564;50.920;11.612;2023-03-23T07:51:24;13.00;99.90
22795;DHT22;11564;50.920;11.612;2023-03-23T07:53:50;13.10;99.90
22795;DHT22;11564;50.920;11.612;2023-03-23T07:56:17;13.10;99.90
22795;DHT22;11564;50.920;11.612;2023-03-23T07:58:48;13.20;99.90
22795;DHT22;11564;50.920;11.612;2023-03-23T08:01:15;13.20;99.90
22795;DHT22;11564;50.920;11.612;2023-03-23T08:03:41;13.30;99.90
22795;DHT22;11564;50.920;11.612;2023-03-23T08:06:07;13.30;99.90
22795;DHT22;11564;50.920;11.612;2023-03-23T08:08:33;13.40;99.90
22795;DHT22;11564;50.920;11.612;2023-03-23T08:10:59;13.40;99.90
22795;DHT22;11564;50.920;11.612;2023-03-23T08:13:25;13.40;99.90
22795;DHT22;11564;50.920;11.612;2023-03-23T08:15:51;13.40;99.90
22795;DHT22;11564;50.920;11.612;2023-03-23T08:18:17;13.40;99.90
22795;DHT22;11564;50.920;11.612;2023-03-23T08:20:43;13.50;99.90
22795;DHT22;11564;50.920;11.612;2023-03-23T08:23:10;13.70;99.90
22795;DHT22;11564;50.920;11.612;2023-03-23T08:25:37;13.80;99.90
22795;DHT22;11564;50.920;11.612;2023-03-23T08:28:03;13.90;99.90
22795;DHT22;11564;50.920;11.612;2023-03-23T08:30:30;14.10;99.90
22795;DHT22;11564;50.920;11.612;2023-03-23T08:32:59;14.00;99.90
22795;DHT22;11564;50.920;11.612;2023-03-23T08:35:26;14.20;99.90
22795;DHT22;11564;50.920;11.612;2023-03-23T08:37:52;14.10;99.90
22795;DHT22;11564;50.920;11.612;2023-03-23T08:40:22;14.10;99.90
22795;DHT22;11564;50.920;11.612;2023-03-23T08:42:49;14.20;99.90
22795;DHT22;11564;50.920;11.612;2023-03-23T08:45:18;14.10;99.90
22795;DHT22;11564;50.920;11.612;2023-03-23T08:47:45;14.10;99.90
22795;DHT22;11564;50.920;11.612;2023-03-23T08:50:16;14.30;99.90
22795;DHT22;11564;50.920;11.612;2023-03-23T08:52:43;14.60;99.90
22795;DHT22;11564;50.920;11.612;2023-03-23T08:55:09;15.00;99.90
22795;DHT22;11564;50.920;11.612;2023-03-23T08:57:36;15.00;99.90
22795;DHT22;11564;50.920;11.612;2023-03-23T09:00:07;15.10;99.90
22795;DHT22;11564;50.920;11.612;2023-03-23T09:02:41;15.20;99.90
22795;DHT22;11564;50.920;11.612;2023-03-23T09:05:08;15.10;99.90
22795;DHT22;11564;50.920;11.612;2023-03-23T09:07:40;15.10;99.90
22795;DHT22;11564;50.920;11.612;2023-03-23T09:10:07;15.20;99.90
22795;DHT22;11564;50.920;11.612;2023-03-23T09:12:33;15.40;99.90
22795;DHT22;11564;50.920;11.612;2023-03-23T09:14:59;15.40;99.90
22795;DHT22;11564;50.920;11.612;2023-03-23T09:17:24;15.30;99.90
22795;DHT22;11564;50.920;11.612;2023-03-23T09:19:51;15.40;99.90
22795;DHT22;11564;50.920;11.612;2023-03-23T09:22:16;15.60;99.90
22795;DHT22;11564;50.920;11.612;2023-03-23T09:24:45;15.50;99.90
22795;DHT22;11564;50.920;11.612;2023-03-23T09:27:11;15.50;99.90
22795;DHT22;11564;50.920;11.612;2023-03-23T09:29:37;15.60;99.90
22795;DHT22;11564;50.920;11.612;2023-03-23T09:32:03;15.70;99.90
22795;DHT22;11564;50.920;11.612;2023-03-23T09:34:29;15.60;99.90
22795;DHT22;11564;50.920;11.612;2023-03-23T09:36:55;15.60;99.90
22795;DHT22;11564;50.920;11.612;2023-03-23T09:39:20;15.70;99.90
22795;DHT22;11564;50.920;11.612;2023-03-23T09:41:51;15.90;99.90
22795;DHT22;11564;50.920;11.612;2023-03-23T09:47:01;15.40;99.90
22795;DHT22;11564;50.920;11.612;2023-03-23T09:49:56;15.70;99.90
22795;DHT22;11564;50.920;11.612;2023-03-23T09:52:30;15.80;99.90
22795;DHT22;11564;50.920;11.612;2023-03-23T09:54:57;15.50;99.90
22795;DHT22;11564;50.920;11.612;2023-03-23T09:57:42;15.20;99.90
22795;DHT22;11564;50.920;11.612;2023-03-23T10:00:31;15.20;99.90
22795;DHT22;11564;50.920;11.612;2023-03-23T10:03:21;15.00;99.90
22795;DHT22;11564;50.920;11.612;2023-03-23T10:05:54;15.00;99.90
22795;DHT22;11564;50.920;11.612;2023-03-23T10:08:48;14.90;99.90
22795;DHT22;11564;50.920;11.612;2023-03-23T10:26:26;14.80;99.90
22795;DHT22;11564;50.920;11.612;2023-03-23T10:32:40;14.80;99.90
22795;DHT22;11564;50.920;11.612;2023-03-23T10:35:12;14.80;99.90
22795;DHT22;11564;50.920;11.612;2023-03-23T10:37:45;14.90;99.90
22795;DHT22;11564;50.920;11.612;2023-03-23T10:40:16;15.10;99.90
22795;DHT22;11564;50.920;11.612;2023-03-23T10:42:43;15.30;99.90
22795;DHT22;11564;50.920;11.612;2023-03-23T10:45:23;15.20;99.90
22795;DHT22;11564;50.920;11.612;2023-03-23T10:47:58;15.10;99.90
22795;DHT22;11564;50.920;11.612;2023-03-23T10:50:35;15.20;99.90
22795;DHT22;11564;50.920;11.612;2023-03-23T10:53:42;15.20;99.90
22795;DHT22;11564;50.920;11.612;2023-03-23T10:55:58;15.20;99.90
22795;DHT22;11564;50.920;11.612;2023-03-23T10:58:34;15.40;99.90
22795;DHT22;11564;50.920;11.612;2023-03-23T11:01:02;15.50;99.90
22795;DHT22;11564;50.920;11.612;2023-03-23T11:03:43;15.70;99.90
22795;DHT22;11564;50.920;11.612;2023-03-23T11:06:11;15.60;99.90
22795;DHT22;11564;50.920;11.612;2023-03-23T11:08:48;15.60;99.90
22795;DHT22;11564;50.920;11.612;2023-03-23T11:14:02;15.70;99.90
22795;DHT22;11564;50.920;11.612;2023-03-23T11:16:31;15.50;99.90
22795;DHT22;11564;50.920;11.612;2023-03-23T11:18:58;15.40;99.90
22795;DHT22;11564;50.920;11.612;2023-03-23T11:21:25;15.30;99.90
22795;DHT22;11564;50.920;11.612;2023-03-23T11:23:57;15.30;99.90
22795;DHT22;11564;50.920;11.612;2023-03-23T11:26:29;15.20;99.90
22795;DHT22;11564;50.920;11.612;2023-03-23T11:31:42;15.20;99.90
22795;DHT22;11564;50.920;11.612;2023-03-23T11:34:24;15.30;99.90
22795;DHT22;11564;50.920;11.612;2023-03-23T11:39:56;15.60;99.90
22795;DHT22;11564;50.920;11.612;2023-03-23T11:42:26;15.70;99.90
22795;DHT22;11564;50.920;11.612;2023-03-23T11:44:53;15.70;99.90
22795;DHT22;11564;50.920;11.612;2023-03-23T11:47:36;15.70;99.90
22795;DHT22;11564;50.920;11.612;2023-03-23T11:53:02;15.40;99.90
22795;DHT22;11564;50.920;11.612;2023-03-23T11:58:13;15.50;99.80
22795;DHT22;11564;50.920;11.612;2023-03-23T12:00:48;15.40;99.80
22795;DHT22;11564;50.920;11.612;2023-03-23T12:04:12;15.40;99.40
22795;DHT22;11564;50.920;11.612;2023-03-23T12:06:38;15.30;99.60
22795;DHT22;11564;50.920;11.612;2023-03-23T12:12:35;15.50;99.60
22795;DHT22;11564;50.920;11.612;2023-03-23T12:15:29;15.60;98.90
22795;DHT22;11564;50.920;11.612;2023-03-23T12:37:26;15.50;98.40
22795;DHT22;11564;50.920;11.612;2023-03-23T12:48:27;16.50;97.30
22795;DHT22;11564;50.920;11.612;2023-03-23T12:51:33;17.90;96.80
22795;DHT22;11564;50.920;11.612;2023-03-23T12:56:54;20.90;93.40
22795;DHT22;11564;50.920;11.612;2023-03-23T12:59:36;21.20;91.80
22795;DHT22;11564;50.920;11.612;2023-03-23T13:04:45;20.20;91.80
22795;DHT22;11564;50.920;11.612;2023-03-23T13:07:16;20.00;92.00
22795;DHT22;11564;50.920;11.612;2023-03-23T13:10:26;19.70;91.80
22795;DHT22;11564;50.920;11.612;2023-03-23T13:12:32;18.50;93.50
22795;DHT22;11564;50.920;11.612;2023-03-23T13:21:10;18.00;94.50
22795;DHT22;11564;50.920;11.612;2023-03-23T13:23:50;17.60;94.70
22795;DHT22;11564;50.920;11.612;2023-03-23T13:26:19;16.90;95.60
22795;DHT22;11564;50.920;11.612;2023-03-23T13:36:42;15.50;97.70
22795;DHT22;11564;50.920;11.612;2023-03-23T13:39:21;15.50;98.20
22795;DHT22;11564;50.920;11.612;2023-03-23T13:47:25;17.70;96.40
22795;DHT22;11564;50.920;11.612;2023-03-23T13:49:57;17.60;96.60
22795;DHT22;11564;50.920;11.612;2023-03-23T13:57:53;16.10;98.10
22795;DHT22;11564;50.920;11.612;2023-03-23T14:05:41;15.60;99.60
22795;DHT22;11564;50.920;11.612;2023-03-23T14:08:20;15.40;99.70
22795;DHT22;11564;50.920;11.612;2023-03-23T14:11:00;15.30;99.90
22795;DHT22;11564;50.920;11.612;2023-03-23T14:13:32;15.00;99.90
22795;DHT22;11564;50.920;11.612;2023-03-23T14:16:03;15.00;99.90
22795;DHT22;11564;50.920;11.612;2023-03-23T14:18:38;14.90;99.90
22795;DHT22;11564;50.920;11.612;2023-03-23T14:21:05;14.80;99.90
22795;DHT22;11564;50.920;11.612;2023-03-23T14:23:32;14.70;99.90
22795;DHT22;11564;50.920;11.612;2023-03-23T14:26:01;14.60;99.90
22795;DHT22;11564;50.920;11.612;2023-03-23T14:28:39;14.50;99.90
22795;DHT22;11564;50.920;11.612;2023-03-23T14:33:44;14.20;99.90
22795;DHT22;11564;50.920;11.612;2023-03-23T14:36:10;14.20;99.90
22795;DHT22;11564;50.920;11.612;2023-03-23T14:38:36;14.20;99.90
22795;DHT22;11564;50.920;11.612;2023-03-23T14:41:03;14.20;99.90
22795;DHT22;11564;50.920;11.612;2023-03-23T14:43:30;14.20;99.90
22795;DHT22;11564;50.920;11.612;2023-03-23T14:46:01;14.10;99.90
22795;DHT22;11564;50.920;11.612;2023-03-23T14:48:27;14.10;99.90
22795;DHT22;11564;50.920;11.612;2023-03-23T14:51:04;14.20;99.90
22795;DHT22;11564;50.920;11.612;2023-03-23T14:53:36;14.20;99.90
22795;DHT22;11564;50.920;11.612;2023-03-23T14:56:14;14.20;99.90
22795;DHT22;11564;50.920;11.612;2023-03-23T14:58:44;14.20;99.90
22795;DHT22;11564;50.920;11.612;2023-03-23T15:01:12;14.20;99.90
22795;DHT22;11564;50.920;11.612;2023-03-23T15:03:49;14.20;99.90
22795;DHT22;11564;50.920;11.612;2023-03-23T15:06:18;14.30;99.90
22795;DHT22;11564;50.920;11.612;2023-03-23T15:08:46;14.30;99.90
22795;DHT22;11564;50.920;11.612;2023-03-23T15:11:22;14.30;99.90
22795;DHT22;11564;50.920;11.612;2023-03-23T15:13:55;14.20;99.90
22795;DHT22;11564;50.920;11.612;2023-03-23T15:16:25;14.20;99.90
22795;DHT22;11564;50.920;11.612;2023-03-23T15:21:28;14.10;99.90
22795;DHT22;11564;50.920;11.612;2023-03-23T15:23:55;14.20;99.90
22795;DHT22;11564;50.920;11.612;2023-03-23T15:26:29;14.40;99.90
22795;DHT22;11564;50.920;11.612;2023-03-23T15:31:32;14.90;99.90
22795;DHT22;11564;50.920;11.612;2023-03-23T15:34:02;15.20;99.90
22795;DHT22;11564;50.920;11.612;2023-03-23T15:36:32;15.40;99.90
22795;DHT22;11564;50.920;11.612;2023-03-23T15:38:59;16.20;99.90
22795;DHT22;11564;50.920;11.612;2023-03-23T15:41:30;16.90;99.20
22795;DHT22;11564;50.920;11.612;2023-03-23T15:44:09;16.70;99.10
22795;DHT22;11564;50.920;11.612;2023-03-23T15:46:35;16.40;99.00
22795;DHT22;11564;50.920;11.612;2023-03-23T15:51:29;15.90;99.60
22795;DHT22;11564;50.920;11.612;2023-03-23T15:53:55;15.70;99.90
22795;DHT22;11564;50.920;11.612;2023-03-23T15:56:21;15.60;99.90
22795;DHT22;11564;50.920;11.612;2023-03-23T15:58:47;15.40;99.90
22795;DHT22;11564;50.920;11.612;2023-03-23T16:01:17;15.60;99.90
22795;DHT22;11564;50.920;11.612;2023-03-23T16:03:57;16.10;99.90
22795;DHT22;11564;50.920;11.612;2023-03-23T16:06:25;16.30;99.70
22795;DHT22;11564;50.920;11.612;2023-03-23T16:08:54;16.20;99.60
22795;DHT22;11564;50.920;11.612;2023-03-23T16:11:21;16.20;99.70
22795;DHT22;11564;50.920;11.612;2023-03-23T16:13:47;16.30;99.80
22795;DHT22;11564;50.920;11.612;2023-03-23T16:16:38;16.10;99.90
22795;DHT22;11564;50.920;11.612;2023-03-23T16:19:04;15.60;99.90
22795;DHT22;11564;50.920;11.612;2023-03-23T16:21:31;15.60;99.90
22795;DHT22;11564;50.920;11.612;2023-03-23T16:23:56;15.70;99.90
22795;DHT22;11564;50.920;11.612;2023-03-23T16:26:22;15.70;99.90
22795;DHT22;11564;50.920;11.612;2023-03-23T16:28:48;15.50;99.90
22795;DHT22;11564;50.920;11.612;2023-03-23T16:31:14;15.30;99.90
22795;DHT22;11564;50.920;11.612;2023-03-23T16:33:39;15.00;99.90
22795;DHT22;11564;50.920;11.612;2023-03-23T16:36:05;15.00;99.90
22795;DHT22;11564;50.920;11.612;2023-03-23T16:38:31;14.90;99.90
22795;DHT22;11564;50.920;11.612;2023-03-23T16:40:57;15.00;99.90
22795;DHT22;11564;50.920;11.612;2023-03-23T16:43:23;14.80;99.90
22795;DHT22;11564;50.920;11.612;2023-03-23T16:45:48;14.90;99.90
22795;DHT22;11564;50.920;11.612;2023-03-23T16:48:15;15.10;99.90
22795;DHT22;11564;50.920;11.612;2023-03-23T16:50:42;15.00;99.90
22795;DHT22;11564;50.920;11.612;2023-03-23T16:53:08;14.90;99.90
22795;DHT22;11564;50.920;11.612;2023-03-23T16:55:35;14.90;99.90
22795;DHT22;11564;50.920;11.612;2023-03-23T16:58:02;14.70;99.90
22795;DHT22;11564;50.920;11.612;2023-03-23T17:00:27;14.50;99.90
22795;DHT22;11564;50.920;11.612;2023-03-23T17:02:54;14.40;99.90
22795;DHT22;11564;50.920;11.612;2023-03-23T17:05:24;14.20;99.90
22795;DHT22;11564;50.920;11.612;2023-03-23T17:07:50;14.20;99.90
22795;DHT22;11564;50.920;11.612;2023-03-23T17:10:17;14.00;99.90
22795;DHT22;11564;50.920;11.612;2023-03-23T17:12:43;14.00;99.90
22795;DHT22;11564;50.920;11.612;2023-03-23T17:15:09;13.80;99.90
22795;DHT22;11564;50.920;11.612;2023-03-23T17:17:36;13.80;99.90
22795;DHT22;11564;50.920;11.612;2023-03-23T17:20:02;13.70;99.90
22795;DHT22;11564;50.920;11.612;2023-03-23T17:22:28;13.60;99.90
22795;DHT22;11564;50.920;11.612;2023-03-23T17:24:53;13.60;99.90
22795;DHT22;11564;50.920;11.612;2023-03-23T17:27:20;13.60;99.90
22795;DHT22;11564;50.920;11.612;2023-03-23T17:29:46;13.50;99.90
22795;DHT22;11564;50.920;11.612;2023-03-23T17:32:12;13.50;99.90
22795;DHT22;11564;50.920;11.612;2023-03-23T17:34:39;13.40;99.90
22795;DHT22;11564;50.920;11.612;2023-03-23T17:37:05;13.30;99.90
22795;DHT22;11564;50.920;11.612;2023-03-23T17:39:31;13.30;99.90
22795;DHT22;11564;50.920;11.612;2023-03-23T17:41:58;13.20;99.90